Flight Track Log - Related Links

Times and Time Zones

All times are in EDT time to prevent confusion due to time zone crossing. See the PT-TMD flight status page for this flight to view local times or setup timezone preferences in your user account.

Time Position Orientation Groundspeed Altitude Reporting Facility
EDT Latitude Longitude Course Direction KTS MPH feet Rate Location/Type
Thu 09:31:32 AM -17.8181 -46.6426 148° Southeast  Level Estimated
Thu 09:32:32 AM -17.8842 -46.5991 148° Southeast  Level Estimated
Thu 09:33:32 AM -17.9502 -46.5556 148° Southeast  Level Estimated
Thu 09:34:32 AM -18.0163 -46.5121 148° Southeast  Level Estimated
Thu 09:35:32 AM -18.0823 -46.4685 148° Southeast  Level Estimated
Thu 09:36:32 AM -18.1484 -46.4249 148° Southeast  Level Estimated
Thu 09:37:32 AM -18.2144 -46.3812 148° Southeast  Level Estimated
Thu 09:38:32 AM -18.2804 -46.3376 148° Southeast  Level Estimated
Thu 09:39:32 AM -18.3464 -46.2939 148° Southeast  Level Estimated
Thu 09:40:32 AM -18.4124 -46.2501 148° Southeast  Level Estimated
Thu 09:41:32 AM -18.4784 -46.2063 148° Southeast  Level Estimated
Thu 09:42:32 AM -18.5444 -46.1625 148° Southeast  Level Estimated
Thu 09:43:32 AM -18.6104 -46.1187 148° Southeast  Level Estimated
Thu 09:44:32 AM -18.6763 -46.0748 148° Southeast  Level Estimated
Thu 09:45:32 AM -18.7423 -46.0309 148° Southeast  Level Estimated
Thu 09:46:32 AM -18.8082 -45.9870 148° Southeast  Level Estimated
Thu 09:47:32 AM -18.8741 -45.9430 148° Southeast  Level Estimated
Thu 09:48:32 AM -18.9400 -45.8990 148° Southeast  Level Estimated
Thu 09:49:32 AM -19.0059 -45.8549 148° Southeast  Level Estimated
Thu 09:50:32 AM -19.0718 -45.8108 148° Southeast  Level Estimated
Thu 09:51:32 AM -19.1377 -45.7667 148° Southeast  Level Estimated
Thu 09:52:32 AM -19.2036 -45.7226 148° Southeast  Level Estimated
Thu 09:53:32 AM -19.2694 -45.6784 148° Southeast  Level Estimated
Thu 09:54:32 AM -19.3353 -45.6342 148° Southeast  Level Estimated
Thu 09:55:32 AM -19.4011 -45.5899 148° Southeast  Level Estimated
Thu 09:56:32 AM -19.4669 -45.5456 148° Southeast  Level Estimated
Thu 09:57:32 AM -19.5328 -45.5013 148° Southeast  Level Estimated
Thu 09:58:32 AM -19.5986 -45.4569 148° Southeast  Level Estimated
Thu 09:59:32 AM -19.6644 -45.4125 148° Southeast  Level Estimated
Thu 10:00:32 AM -19.7302 -45.3681 148° Southeast  Level Estimated
Thu 10:01:32 AM -19.7959 -45.3236 148° Southeast  Level Estimated
Thu 10:02:32 AM -19.8617 -45.2791 148° Southeast  Level Estimated
Thu 10:03:32 AM -19.9275 -45.2346 147° Southeast  Level Estimated
Thu 10:04:32 AM -19.9932 -45.1900 147° Southeast  Level Estimated
Thu 10:05:32 AM -20.0589 -45.1453 147° Southeast  Level Estimated
Thu 10:06:32 AM -20.1246 -45.1007 147° Southeast  Level Estimated
Thu 10:07:32 AM -20.1903 -45.0560 147° Southeast  Level Estimated
Thu 10:08:32 AM -20.2561 -45.0112 147° Southeast  Level Estimated
Thu 10:09:32 AM -20.3217 -44.9665 147° Southeast  Level Estimated
Thu 10:10:32 AM -20.3874 -44.9217 147° Southeast  Level Estimated
Thu 10:11:32 AM -20.4531 -44.8768 147° Southeast  Level Estimated
Thu 10:12:32 AM -20.5187 -44.8319 147° Southeast  Level Estimated
Thu 10:13:32 AM -20.5844 -44.7870 147° Southeast  Level Estimated
Thu 10:14:32 AM -20.6500 -44.7420 147° Southeast  Level Estimated
Thu 10:15:32 AM -20.7156 -44.6970 147° Southeast  Level Estimated
Thu 10:16:32 AM -20.7812 -44.6520 147° Southeast  Level Estimated
Thu 10:17:32 AM -20.8468 -44.6069 147° Southeast  Level Estimated
Thu 10:18:32 AM -20.9124 -44.5618 147° Southeast  Level Estimated
Thu 10:19:32 AM -20.9780 -44.5166 147° Southeast  Level Estimated
Thu 10:20:32 AM -21.0435 -44.4714 147° Southeast  Level Estimated
Thu 10:21:32 AM -21.1091 -44.4262 147° Southeast  Level Estimated
Thu 10:22:32 AM -21.1746 -44.3809 147° Southeast  Level Estimated
Thu 10:23:32 AM -21.2401 -44.3356 147° Southeast  Level Estimated
Thu 10:24:32 AM -21.3056 -44.2902 147° Southeast  Level Estimated
Thu 10:25:32 AM -21.3711 -44.2448 147° Southeast  Level Estimated
Thu 10:26:32 AM -21.4366 -44.1994 147° Southeast  Level Estimated
Thu 10:27:32 AM -21.5021 -44.1539 147° Southeast  Level Estimated
Thu 10:28:32 AM -21.5675 -44.1084 147° Southeast  Level Estimated
Thu 10:29:32 AM -21.6330 -44.0628 147° Southeast  Level Estimated
Thu 10:30:32 AM -21.6984 -44.0172 147° Southeast  Level Estimated
Thu 10:31:32 AM -21.7638 -43.9716 147° Southeast  Level Estimated
Thu 10:32:32 AM -21.8293 -43.9259 147° Southeast  Level Estimated
Thu 10:33:32 AM -21.8947 -43.8801 147° Southeast  Level Estimated
Thu 10:34:32 AM -21.9601 -43.8344 147° Southeast  Level Estimated
Thu 10:35:32 AM -22.0254 -43.7886 147° Southeast  Level Estimated
Thu 10:36:32 AM -22.0908 -43.7427 147° Southeast  Level Estimated
Thu 10:37:32 AM -22.1561 -43.6968 147° Southeast  Level Estimated
Thu 10:38:32 AM -22.2215 -43.6509 147° Southeast  Level Estimated
Thu 10:39:32 AM -22.2868 -43.6049 147° Southeast  Level Estimated
Thu 10:40:32 AM -22.3521 -43.5588 147° Southeast  Level Estimated
Thu 10:41:32 AM -22.4174 -43.5128 147° Southeast  Level Estimated
Thu 10:42:32 AM -22.4827 -43.4666 147° Southeast  Level Estimated
Thu 10:43:32 AM -22.5479 -43.4205 147° Southeast  Level Estimated
Thu 10:44:32 AM -22.6132 -43.3743 147° Southeast  Level Estimated
Thu 10:45:32 AM -22.6784 -43.3280 147° Southeast  Level Estimated
Thu 10:46:32 AM -22.7437 -43.2817 147° Southeast  Level Estimated
Thu 10:47:32 AM -22.8089 -43.2354 147° Southeast  Level Estimated
Thu 10:48:32 AM -22.8741 -43.1890 147° Southeast  Level Estimated
Thu 10:49:32 AM -22.9393 -43.1426 327° Northwest  Level Estimated
Thu 10:50:32 AM -22.8741 -43.1890 147° Southeast  Level Estimated
Thu 10:51:32 AM -22.9393 -43.1426 327° Northwest  Level Estimated
Thu 10:52:32 AM -22.8741 -43.1890 147° Southeast  Level Estimated
Thu 10:53:32 AM -22.9393 -43.1426 327° Northwest  Level Estimated
Thu 10:54:32 AM -22.8741 -43.1890 147° Southeast  Level Estimated
Thu 10:55:32 AM -22.9393 -43.1426 327° Northwest  Level Estimated
Thu 10:56:32 AM -22.8741 -43.1890 147° Southeast  Level Estimated
Thu 10:57:32 AM -22.9393 -43.1426 327° Northwest  Level Estimated
Thu 10:58:32 AM -22.8741 -43.1890 147° Southeast  Level Estimated
Thu 10:59:32 AM -22.9393 -43.1426 327° Northwest  Level Estimated
Thu 11:00:32 AM -22.8741 -43.1890 147° Southeast  Level Estimated
Thu 11:01:32 AM -22.9393 -43.1426 327° Northwest  Level Estimated
Thu 11:02:32 AM -22.8741 -43.1890 147° Southeast  Level Estimated
Thu 11:03:32 AM -22.9393 -43.1426 327° Northwest  Level Estimated
Thu 11:04:32 AM -22.8741 -43.1890 327° Northwest  Level Estimated

Login

Don't have an account? Register now (free) for customized features, flight alerts, and more!